Taipak, Kazakhstan
Current Conditions -  °F | °C
As of 8:00 PM on Wednesday 28 Jan 2015 (Local Time) from UATG Reporting Station
Clear Clear  
Wind Chill: -23°   Ceiling: Unl
Heat Index: -13°   Visibility: 6mi
Dew Point: -15°   Wind: 18mph
Humidity: 85%   Direction: 110°ESE
Pressure: 30.3"   Gusts: NA
Location:  49.05°N, 51.87°E
Report Text: UATG 281600Z 11008MPS CAVOK M13/M15 Q1026 R14/82//68 NOSIG RMKQFE771/1029
Loading
Personal Weather Stations






























Interactive Weather Map New forecast layout! Learn more

10-Day Weather Forecast

Advertisements
Track Severe Weather on mobile